KPCM

Plant City Airport

Plant City, Florida, USA
METAR KPCM 182135Z AUTO 00000KT 10SM CLR 34/19 A3005 RMK AO2
Observed Flight Rules
Aug-18 @ 21:35 UTC (19 minutes ago) Visual Flight Rules
Visibility Clouds
10 miles
  • Clear skies
Temperatures Readings
Current 34°C / 93°F
Dewpoint 19°C / 66°F
Humidity 41%
Altimeter 30.05" Hg
Pressure 1018 hPa
Elevation 47
METAR KPCM 182135Z AUTO 00000KT 10SM CLR 34/19 A3005 RMK AO2
Observed Flight Rules
Aug-18 @ 21:35 UTC
(19 minutes ago)
VFR
Clouds
  • Clear skies
Temperature Dewpoint
34°C / 93°F 19°C / 66°F
Humidity Altimeter Pressure
41% 30.05" Hg 1018 hPa